createdAt,value
2018-01-28T00:01:49.263Z,97625.57
2018-01-28T00:04:16.868Z,97627.93
2018-01-28T00:06:44.481Z,97617.84
2018-01-28T00:09:12.536Z,97608.16
2018-01-28T00:11:40.150Z,97616.94
2018-01-28T00:14:07.818Z,97623.88
2018-01-28T00:16:35.400Z,97624.03
2018-01-28T00:19:02.993Z,97627.41
2018-01-28T00:21:30.555Z,97628.81
2018-01-28T00:23:58.141Z,97626.77
2018-01-28T00:26:25.786Z,97624.22
2018-01-28T00:28:53.332Z,97622.86
2018-01-28T00:31:20.909Z,97621.88
2018-01-28T00:33:48.462Z,97618.77
2018-01-28T00:36:16.285Z,97624.17
2018-01-28T00:38:43.843Z,97629.20
2018-01-28T00:41:12.032Z,97615.91
2018-01-28T00:43:39.627Z,97615.87
2018-01-28T00:46:07.207Z,97620.08
2018-01-28T00:48:34.778Z,97618.15
2018-01-28T00:51:02.419Z,97614.05
2018-01-28T00:53:29.990Z,97618.77
2018-01-28T00:55:57.548Z,97617.83
2018-01-28T00:58:25.196Z,97618.27
2018-01-28T01:00:52.752Z,97615.06
2018-01-28T01:03:20.365Z,97618.17
2018-01-28T01:05:47.967Z,97619.72
2018-01-28T01:08:15.521Z,97622.40
2018-01-28T01:10:43.084Z,97621.50
2018-01-28T01:13:10.886Z,97618.73
2018-01-28T01:15:38.484Z,97611.92
2018-01-28T01:18:06.203Z,97603.28
2018-01-28T01:20:33.812Z,97621.19
2018-01-28T01:23:01.371Z,97617.92
2018-01-28T01:25:28.940Z,97620.78
2018-01-28T01:27:56.554Z,97618.39
2018-01-28T01:30:24.139Z,97621.16
2018-01-28T01:32:51.690Z,97612.72
2018-01-28T01:35:19.750Z,97611.27
2018-01-28T01:37:47.373Z,97603.56
2018-01-28T01:40:14.960Z,97605.58
2018-01-28T01:42:42.552Z,97597.60
2018-01-28T01:45:10.631Z,97591.11
2018-01-28T01:47:38.244Z,97596.38
2018-01-28T01:50:05.816Z,97593.08
2018-01-28T01:52:33.372Z,97588.86
2018-01-28T01:55:00.925Z,97590.36
2018-01-28T01:57:28.530Z,97595.67
2018-01-28T01:59:56.143Z,97590.41
2018-01-28T02:02:24.783Z,97583.80
2018-01-28T02:04:52.366Z,97573.80
2018-01-28T02:07:19.962Z,97568.90
2018-01-28T02:09:47.560Z,97581.14
2018-01-28T02:12:15.163Z,97580.25
2018-01-28T02:14:42.809Z,97564.30
2018-01-28T02:17:10.374Z,97568.16
2018-01-28T02:19:38.042Z,97571.24
2018-01-28T02:22:05.590Z,97572.91
2018-01-28T02:24:33.163Z,97577.20
2018-01-28T02:27:00.744Z,97578.23
2018-01-28T02:29:28.344Z,97577.06
2018-01-28T02:31:55.928Z,97571.89
2018-01-28T02:34:23.573Z,97564.62
2018-01-28T02:36:51.182Z,97558.16
2018-01-28T02:39:18.767Z,97560.67
2018-01-28T02:41:46.483Z,97571.50
2018-01-28T02:44:14.134Z,97570.30
2018-01-28T02:46:41.689Z,97576.92
2018-01-28T02:49:09.486Z,97581.20
2018-01-28T02:51:37.087Z,97575.56
2018-01-28T02:54:05.308Z,97568.09
2018-01-28T02:56:33.319Z,97565.68
2018-01-28T02:59:00.893Z,97560.94
2018-01-28T03:01:28.456Z,97558.54
2018-01-28T03:03:56.393Z,97555.14
2018-01-28T03:06:24.026Z,97558.38
2018-01-28T03:08:51.631Z,97560.98
2018-01-28T03:11:19.204Z,97564.02
2018-01-28T03:13:46.794Z,97566.65
2018-01-28T03:16:14.393Z,97561.11
2018-01-28T03:18:41.966Z,97563.11
2018-01-28T03:21:09.920Z,97561.20
2018-01-28T03:23:37.507Z,97564.86
2018-01-28T03:26:07.800Z,97561.09
2018-01-28T03:28:35.448Z,97557.24
2018-01-28T03:31:03.101Z,97556.71
2018-01-28T03:33:30.702Z,97552.75
2018-01-28T03:35:58.377Z,97553.73
2018-01-28T03:38:26.036Z,97540.48
2018-01-28T03:40:53.610Z,97536.16
2018-01-28T03:43:21.266Z,97541.64
2018-01-28T03:45:48.840Z,97528.63
2018-01-28T03:48:16.501Z,97532.33
2018-01-28T03:50:44.083Z,97522.88
2018-01-28T03:53:13.877Z,97517.95
2018-01-28T03:55:41.445Z,97520.84
2018-01-28T03:58:09.017Z,97515.52
2018-01-28T04:00:36.624Z,97510.91
2018-01-28T04:03:06.060Z,97505.38
2018-01-28T04:05:33.645Z,97491.70
2018-01-28T04:08:01.234Z,97484.64
2018-01-28T04:10:29.779Z,97487.81
2018-01-28T04:12:57.356Z,97476.12
2018-01-28T04:15:24.968Z,97483.64
2018-01-28T04:17:52.577Z,97490.55
2018-01-28T04:20:20.149Z,97495.89
2018-01-28T04:22:47.752Z,97504.55
2018-01-28T04:25:15.965Z,97506.73
2018-01-28T04:27:43.584Z,97499.88
2018-01-28T04:30:11.189Z,97481.96
2018-01-28T04:32:38.740Z,97478.61
2018-01-28T04:35:07.333Z,97479.55
2018-01-28T04:37:34.938Z,97478.08
2018-01-28T04:40:02.577Z,97485.34
2018-01-28T04:42:30.277Z,97483.59
2018-01-28T04:44:57.840Z,97475.16
2018-01-28T04:47:25.619Z,97470.15
2018-01-28T04:49:53.194Z,97465.06
2018-01-28T04:52:21.581Z,97460.48
2018-01-28T04:54:49.162Z,97448.72
2018-01-28T04:57:16.740Z,97445.88
2018-01-28T04:59:44.621Z,97450.61
2018-01-28T05:02:15.777Z,97448.07
2018-01-28T05:04:43.458Z,97451.78
2018-01-28T05:07:12.266Z,97456.26
2018-01-28T05:09:39.848Z,97455.37
2018-01-28T05:12:07.505Z,97462.22
2018-01-28T05:14:35.100Z,97460.92
2018-01-28T05:17:02.688Z,97448.94
2018-01-28T05:19:30.287Z,97443.46
2018-01-28T05:21:57.890Z,97444.27
2018-01-28T05:24:25.453Z,97452.86
2018-01-28T05:26:53.050Z,97442.39
2018-01-28T05:29:20.622Z,97445.45
2018-01-28T05:31:48.229Z,97463.17
2018-01-28T05:34:20.467Z,97461.20
2018-01-28T05:36:48.193Z,97463.55
2018-01-28T05:39:15.752Z,97449.88
2018-01-28T05:41:43.316Z,97447.08
2018-01-28T05:44:11.078Z,97449.22
2018-01-28T05:46:38.666Z,97449.77
2018-01-28T05:49:06.528Z,97430.82
2018-01-28T05:51:34.160Z,97426.44
2018-01-28T05:54:01.819Z,97428.96
2018-01-28T05:56:29.417Z,97424.66
2018-01-28T05:58:56.981Z,97426.81
2018-01-28T06:01:24.559Z,97435.11
2018-01-28T06:03:52.125Z,97445.94
2018-01-28T06:06:19.736Z,97443.62
2018-01-28T06:08:47.345Z,97444.06
2018-01-28T06:11:15.150Z,97450.59
2018-01-28T06:13:42.775Z,97455.52
2018-01-28T06:16:10.336Z,97454.95
2018-01-28T06:18:37.909Z,97439.30
2018-01-28T06:21:05.554Z,97436.77
2018-01-28T06:23:34.480Z,97430.16
2018-01-28T06:26:02.129Z,97437.56
2018-01-28T06:28:29.745Z,97452.82
2018-01-28T06:30:57.318Z,97448.73
2018-01-28T06:33:25.324Z,97456.72
2018-01-28T06:35:52.983Z,97468.34
2018-01-28T06:38:20.650Z,97459.25
2018-01-28T06:40:48.316Z,97455.91
2018-01-28T06:43:15.989Z,97458.66
2018-01-28T06:45:44.591Z,97462.23
2018-01-28T06:48:12.196Z,97462.77
2018-01-28T06:50:39.775Z,97469.19
2018-01-28T06:53:08.554Z,97468.16
2018-01-28T06:55:36.237Z,97468.17
2018-01-28T06:58:03.813Z,97481.17
2018-01-28T07:00:31.418Z,97480.69
2018-01-28T07:02:58.992Z,97485.70
2018-01-28T07:05:26.587Z,97481.05
2018-01-28T07:07:54.236Z,97481.52
2018-01-28T07:10:21.806Z,97483.44
2018-01-28T07:12:49.404Z,97483.95
2018-01-28T07:15:17.290Z,97495.91
2018-01-28T07:17:44.874Z,97496.69
2018-01-28T07:20:12.450Z,97504.64
2018-01-28T07:22:40.923Z,97502.68
2018-01-28T07:25:08.560Z,97507.65
2018-01-28T07:27:37.184Z,97513.98
2018-01-28T07:30:04.752Z,97498.11
2018-01-28T07:32:33.723Z,97492.82
2018-01-28T07:35:01.347Z,97490.85
2018-01-28T07:37:29.437Z,97477.87
2018-01-28T07:39:57.002Z,97475.06
2018-01-28T07:42:24.583Z,97471.64
2018-01-28T07:44:53.957Z,97474.08
2018-01-28T07:47:22.065Z,97481.30
2018-01-28T07:49:51.613Z,97471.66
2018-01-28T07:52:19.191Z,97504.09
2018-01-28T07:54:46.869Z,97465.17
2018-01-28T07:57:14.936Z,97474.12
2018-01-28T07:59:44.472Z,97469.39
2018-01-28T08:02:12.156Z,97470.87
2018-01-28T08:04:39.718Z,97475.08
2018-01-28T08:07:07.892Z,97464.62
2018-01-28T08:09:40.951Z,97459.57
2018-01-28T08:12:14.169Z,97464.05
2018-01-28T08:14:42.041Z,97470.50
2018-01-28T08:17:10.212Z,97463.97
2018-01-28T08:19:37.808Z,97460.86
2018-01-28T08:22:05.432Z,97462.22
2018-01-28T08:24:33.046Z,97462.72
2018-01-28T08:30:01.605Z,97460.91
2018-01-28T08:32:29.206Z,97460.98
2018-01-28T08:34:56.753Z,97468.01
2018-01-28T08:39:58.488Z,97467.23
2018-01-28T08:42:26.064Z,97470.27
2018-01-28T08:44:53.634Z,97458.98
2018-01-28T08:47:21.224Z,97467.62
2018-01-28T08:49:48.870Z,97476.68
2018-01-28T08:52:16.447Z,97486.00
2018-01-28T08:54:44.012Z,97491.55
2018-01-28T08:57:12.178Z,97483.29
2018-01-28T08:59:39.734Z,97494.63
2018-01-28T09:02:07.298Z,97502.47
2018-01-28T09:04:34.900Z,97499.30
2018-01-28T09:07:02.493Z,97495.56
2018-01-28T09:09:30.880Z,97493.60
2018-01-28T09:11:58.463Z,97496.73
2018-01-28T09:14:26.025Z,97498.72
2018-01-28T09:16:53.596Z,97506.52
2018-01-28T09:19:21.197Z,97497.99
2018-01-28T09:21:48.806Z,97505.62
2018-01-28T09:24:16.409Z,97491.83
2018-01-28T09:26:44.007Z,97505.98
2018-01-28T09:29:11.955Z,97507.95
2018-01-28T09:31:39.509Z,97501.06
2018-01-28T09:34:07.091Z,97511.20
2018-01-28T09:36:34.667Z,97526.52
2018-01-28T09:39:02.230Z,97516.47
2018-01-28T09:41:29.858Z,97530.63
2018-01-28T09:43:57.436Z,97517.01
2018-01-28T09:46:26.723Z,97503.50
2018-01-28T09:48:54.368Z,97515.96
2018-01-28T09:51:21.965Z,97512.55
2018-01-28T09:53:49.515Z,97507.26
2018-01-28T09:56:17.146Z,97497.27
2018-01-28T09:58:44.711Z,97510.07
2018-01-28T10:01:12.295Z,97501.37
2018-01-28T10:03:39.935Z,97500.45
2018-01-28T10:06:07.566Z,97520.00
2018-01-28T10:08:35.266Z,97492.94
2018-01-28T10:11:02.851Z,97506.73
2018-01-28T10:13:30.693Z,97516.23
2018-01-28T10:15:58.237Z,97522.19
2018-01-28T10:18:25.849Z,97512.77
2018-01-28T10:20:53.410Z,97518.34
2018-01-28T10:23:21.328Z,97502.19
2018-01-28T10:25:48.947Z,97497.75
2018-01-28T10:28:16.492Z,97508.37
2018-01-28T10:30:44.070Z,97484.71
2018-01-28T10:33:11.825Z,97497.25
2018-01-28T10:35:40.321Z,97492.39
2018-01-28T10:38:07.872Z,97486.20
2018-01-28T10:40:35.497Z,97481.69
2018-01-28T10:43:03.070Z,97480.98
2018-01-28T10:45:30.650Z,97482.16
2018-01-28T10:47:58.240Z,97493.20
2018-01-28T10:50:25.817Z,97488.52
2018-01-28T10:52:53.412Z,97499.27
2018-01-28T10:55:21.049Z,97501.16
2018-01-28T10:57:48.618Z,97498.16
2018-01-28T11:00:16.186Z,97505.19
2018-01-28T11:02:43.810Z,97502.80
2018-01-28T11:05:11.367Z,97508.64
2018-01-28T11:07:39.013Z,97495.77
2018-01-28T11:10:06.626Z,97487.69
2018-01-28T11:12:35.887Z,97484.78
2018-01-28T11:15:04.218Z,97493.60
2018-01-28T11:17:33.897Z,97503.89
2018-01-28T11:20:03.107Z,97494.16
2018-01-28T11:22:30.863Z,97500.52
2018-01-28T11:24:59.326Z,97506.59
2018-01-28T11:27:26.923Z,97531.20
2018-01-28T11:29:54.472Z,97515.13
2018-01-28T11:32:24.330Z,97506.52
2018-01-28T11:34:52.134Z,97516.87
2018-01-28T11:37:19.708Z,97513.52
2018-01-28T11:39:47.299Z,97520.61
2018-01-28T11:42:14.917Z,97536.39
2018-01-28T11:44:42.497Z,97530.52
2018-01-28T11:47:10.511Z,97528.02
2018-01-28T11:49:38.188Z,97514.51
2018-01-28T11:52:05.753Z,97530.17
2018-01-28T11:54:33.325Z,97530.28
2018-01-28T11:57:04.082Z,97527.09
2018-01-28T11:59:32.863Z,97532.61
2018-01-28T12:02:00.519Z,97540.09
2018-01-28T12:04:28.136Z,97536.09
2018-01-28T12:06:55.714Z,97543.92
2018-01-28T12:09:24.022Z,97536.14
2018-01-28T12:11:51.582Z,97518.07
2018-01-28T12:14:19.290Z,97518.84
2018-01-28T12:16:46.884Z,97518.83
2018-01-28T12:19:14.458Z,97515.86
2018-01-28T12:21:42.112Z,97523.51
2018-01-28T12:24:09.787Z,97520.38
2018-01-28T12:26:37.378Z,97527.09
2018-01-28T12:29:05.060Z,97527.38
2018-01-28T12:31:32.632Z,97537.92
2018-01-28T12:34:00.250Z,97532.88
2018-01-28T12:36:27.852Z,97541.59
2018-01-28T12:38:55.434Z,97536.72
2018-01-28T12:41:23.026Z,97544.49
2018-01-28T12:43:50.646Z,97544.75
2018-01-28T12:46:18.222Z,97531.86
2018-01-28T12:48:45.770Z,97557.42
2018-01-28T12:51:13.636Z,97546.80
2018-01-28T12:53:41.197Z,97557.76
2018-01-28T12:56:08.736Z,97558.22
2018-01-28T12:58:36.312Z,97555.71
2018-01-28T13:01:03.973Z,97557.20
2018-01-28T13:03:32.325Z,97556.69
2018-01-28T13:05:59.908Z,97557.47
2018-01-28T13:08:27.514Z,97553.06
2018-01-28T13:10:55.172Z,97558.70
2018-01-28T13:13:22.753Z,97551.77
2018-01-28T13:15:50.325Z,97562.29
2018-01-28T13:18:17.906Z,97557.56
2018-01-28T13:20:45.451Z,97554.90
2018-01-28T13:26:03.842Z,97564.96
2018-01-28T13:28:31.399Z,97555.02
2018-01-28T13:30:58.979Z,97553.84
2018-01-28T13:33:27.588Z,97549.95
2018-01-28T13:35:55.176Z,97551.28
2018-01-28T13:38:22.754Z,97550.92
2018-01-28T13:40:50.331Z,97556.65
2018-01-28T13:43:17.917Z,97572.75
2018-01-28T13:45:45.482Z,97572.58
2018-01-28T13:48:13.073Z,97558.14
2018-01-28T13:50:40.707Z,97561.06
2018-01-28T13:53:08.679Z,97561.70
2018-01-28T13:55:36.497Z,97557.16
2018-01-28T13:58:04.169Z,97557.03
2018-01-28T14:00:31.814Z,97553.81
2018-01-28T14:02:59.379Z,97549.45
2018-01-28T14:05:26.944Z,97555.39
2018-01-28T14:07:54.518Z,97545.69
2018-01-28T14:10:22.076Z,97548.80
2018-01-28T14:12:49.636Z,97550.06
2018-01-28T14:15:17.269Z,97550.55
2018-01-28T14:17:44.822Z,97544.55
2018-01-28T14:20:12.442Z,97540.00
2018-01-28T14:22:40.113Z,97533.08
2018-01-28T14:25:07.829Z,97535.55
2018-01-28T14:27:35.429Z,97533.30
2018-01-28T14:30:03.034Z,97539.08
2018-01-28T14:32:30.633Z,97532.45
2018-01-28T14:34:58.193Z,97532.07
2018-01-28T14:37:27.572Z,97533.22
2018-01-28T14:39:55.148Z,97528.99
2018-01-28T14:42:23.133Z,97522.52
2018-01-28T14:44:50.749Z,97530.69
2018-01-28T14:47:18.347Z,97523.11
2018-01-28T14:49:45.886Z,97525.72
2018-01-28T14:52:13.516Z,97512.35
2018-01-28T14:54:41.106Z,97505.52
2018-01-28T14:57:09.297Z,97485.27
2018-01-28T14:59:36.879Z,97491.56
2018-01-28T15:02:04.467Z,97489.59
2018-01-28T15:04:32.102Z,97485.36
2018-01-28T15:06:59.640Z,97492.73
2018-01-28T15:09:28.163Z,97483.91
2018-01-28T15:11:55.753Z,97490.62
2018-01-28T15:14:28.362Z,97506.69
2018-01-28T15:16:56.004Z,97505.90
2018-01-28T15:19:24.149Z,97508.89
2018-01-28T15:21:51.724Z,97501.59
2018-01-28T15:24:20.209Z,97508.95
2018-01-28T15:26:47.808Z,97509.94
2018-01-28T15:29:15.387Z,97504.44
2018-01-28T15:31:42.967Z,97505.84
2018-01-28T15:34:11.101Z,97509.42
2018-01-28T15:36:38.825Z,97509.44
2018-01-28T15:39:06.529Z,97505.12
2018-01-28T15:41:34.094Z,97507.89
2018-01-28T15:44:05.855Z,97494.87
2018-01-28T15:46:33.501Z,97514.59
2018-01-28T15:49:01.232Z,97513.67
2018-01-28T15:51:29.776Z,97509.10
2018-01-28T15:53:57.745Z,97511.78
2018-01-28T15:56:25.332Z,97504.78
2018-01-28T15:58:52.971Z,97507.44
2018-01-28T16:01:21.144Z,97495.90
2018-01-28T16:03:48.902Z,97495.98
2018-01-28T16:06:16.492Z,97508.81
2018-01-28T16:08:44.053Z,97508.66
2018-01-28T16:11:11.658Z,97505.88
2018-01-28T16:13:39.245Z,97506.51
2018-01-28T16:16:06.788Z,97505.94
2018-01-28T16:18:34.632Z,97507.49
2018-01-28T16:21:02.170Z,97504.25
2018-01-28T16:23:29.743Z,97524.65
2018-01-28T16:25:57.304Z,97520.53
2018-01-28T16:28:24.892Z,97521.00
2018-01-28T16:30:52.470Z,97518.64
2018-01-28T16:33:20.042Z,97512.52
2018-01-28T16:35:47.593Z,97516.06
2018-01-28T16:38:15.262Z,97507.97
2018-01-28T16:40:42.831Z,97525.14
2018-01-28T16:43:10.996Z,97520.68
2018-01-28T16:45:38.558Z,97508.83
2018-01-28T16:48:06.243Z,97518.25
2018-01-28T16:50:33.842Z,97507.55
2018-01-28T16:53:01.412Z,97514.99
2018-01-28T16:55:29.001Z,97523.77
2018-01-28T16:57:56.577Z,97520.45
2018-01-28T17:00:24.149Z,97506.34
2018-01-28T17:02:51.745Z,97510.39
2018-01-28T17:05:19.576Z,97510.08
2018-01-28T17:07:47.187Z,97508.13
2018-01-28T17:10:14.823Z,97520.02
2018-01-28T17:12:42.623Z,97502.27
2018-01-28T17:15:11.976Z,97517.52
2018-01-28T17:17:39.548Z,97513.59
2018-01-28T17:20:07.153Z,97514.67
2018-01-28T17:22:34.692Z,97518.89
2018-01-28T17:25:02.327Z,97512.04
2018-01-28T17:27:30.632Z,97518.28
2018-01-28T17:29:58.222Z,97509.29
2018-01-28T17:32:25.804Z,97503.47
2018-01-28T17:34:53.570Z,97507.64
2018-01-28T17:37:21.311Z,97499.80
2018-01-28T17:39:48.928Z,97512.22
2018-01-28T17:42:16.489Z,97494.62
2018-01-28T17:44:44.056Z,97509.92
2018-01-28T17:47:12.425Z,97509.89
2018-01-28T17:49:39.992Z,97499.88
2018-01-28T17:52:07.548Z,97493.48
2018-01-28T17:54:35.108Z,97492.39
2018-01-28T17:57:02.684Z,97494.80
2018-01-28T17:59:30.259Z,97490.53
2018-01-28T18:01:57.877Z,97496.25
2018-01-28T18:06:57.225Z,97501.68
2018-01-28T18:09:24.963Z,97505.05
2018-01-28T18:11:52.650Z,97504.55
2018-01-28T18:14:20.237Z,97492.91
2018-01-28T18:16:47.820Z,97502.09
2018-01-28T18:19:15.392Z,97508.04
2018-01-28T18:21:42.946Z,97499.52
2018-01-28T18:24:10.534Z,97495.95
2018-01-28T18:26:38.104Z,97511.89
2018-01-28T18:29:05.780Z,97512.92
2018-01-28T18:31:33.413Z,97524.25
2018-01-28T18:34:00.994Z,97514.80
2018-01-28T18:36:28.595Z,97528.50
2018-01-28T18:38:56.144Z,97530.29
2018-01-28T18:41:23.712Z,97525.60
2018-01-28T18:43:51.312Z,97521.94
2018-01-28T18:49:09.660Z,97536.14
2018-01-28T18:51:37.262Z,97540.70
2018-01-28T18:54:05.117Z,97505.95
2018-01-28T18:56:32.739Z,97537.29
2018-01-28T18:59:00.411Z,97528.55
2018-01-28T19:01:28.039Z,97536.23
2018-01-28T19:03:55.994Z,97539.35
2018-01-28T19:06:23.885Z,97526.63
2018-01-28T19:08:51.623Z,97534.94
2018-01-28T19:11:19.266Z,97535.87
2018-01-28T19:13:47.667Z,97537.83
2018-01-28T19:16:15.220Z,97540.45
2018-01-28T19:18:44.140Z,97554.30
2018-01-28T19:21:11.890Z,97548.01
2018-01-28T19:23:40.541Z,97545.13
2018-01-28T19:26:08.177Z,97544.69
2018-01-28T19:28:35.875Z,97543.86
2018-01-28T19:31:03.649Z,97551.95
2018-01-28T19:33:31.205Z,97550.03
2018-01-28T19:35:58.788Z,97544.23
2018-01-28T19:38:26.456Z,97551.44
2018-01-28T19:40:54.760Z,97549.88
2018-01-28T19:43:22.417Z,97545.47
2018-01-28T19:45:51.118Z,97553.17
2018-01-28T19:48:18.826Z,97553.64
2018-01-28T19:50:46.429Z,97532.62
2018-01-28T19:53:15.255Z,97534.73
2018-01-28T19:55:43.082Z,97542.36
2018-01-28T19:58:10.940Z,97543.14
2018-01-28T20:00:38.749Z,97536.84
2018-01-28T20:03:06.573Z,97542.52
2018-01-28T20:05:34.279Z,97530.66
2018-01-28T20:08:02.104Z,97527.48
2018-01-28T20:10:30.607Z,97514.64
2018-01-28T20:12:58.718Z,97517.86
2018-01-28T20:15:26.701Z,97522.45
2018-01-28T20:17:54.573Z,97522.06
2018-01-28T20:20:22.590Z,97521.54
2018-01-28T20:22:50.461Z,97523.90
2018-01-28T20:25:18.719Z,97534.28
2018-01-28T20:27:46.600Z,97527.12
2018-01-28T20:30:14.513Z,97528.92
2018-01-28T20:32:42.379Z,97527.38
2018-01-28T20:35:11.391Z,97539.73
2018-01-28T20:37:39.052Z,97538.05
2018-01-28T20:40:06.645Z,97542.77
2018-01-28T20:42:34.296Z,97534.00
2018-01-28T20:45:01.860Z,97529.68
2018-01-28T20:47:29.545Z,97522.22
2018-01-28T20:49:57.289Z,97537.80
2018-01-28T20:52:24.858Z,97541.92
2018-01-28T20:54:52.418Z,97549.73
2018-01-28T20:57:20.707Z,97552.44
2018-01-28T20:59:48.632Z,97544.48
2018-01-28T21:02:16.234Z,97542.19
2018-01-28T21:04:44.277Z,97537.25
2018-01-28T21:07:12.062Z,97540.92
2018-01-28T21:09:39.684Z,97539.58
2018-01-28T21:12:07.281Z,97547.02
2018-01-28T21:14:34.844Z,97543.52
2018-01-28T21:17:02.374Z,97535.01
2018-01-28T21:19:29.980Z,97524.74
2018-01-28T21:21:57.626Z,97527.64
2018-01-28T21:24:25.209Z,97516.78
2018-01-28T21:26:52.884Z,97515.78
2018-01-28T21:29:20.425Z,97513.22
2018-01-28T21:31:48.163Z,97503.45
2018-01-28T21:34:16.821Z,97507.67
2018-01-28T21:36:44.504Z,97492.97
2018-01-28T21:39:12.174Z,97493.97
2018-01-28T21:41:39.779Z,97490.48
2018-01-28T21:44:07.394Z,97476.39
2018-01-28T21:46:35.234Z,97483.44
2018-01-28T21:49:02.847Z,97484.95
2018-01-28T21:51:32.115Z,97479.45
2018-01-28T21:53:59.768Z,97495.55
2018-01-28T21:56:27.351Z,97477.81
2018-01-28T21:58:55.080Z,97486.63
2018-01-28T22:01:22.710Z,97484.02
2018-01-28T22:03:50.323Z,97480.05
2018-01-28T22:06:17.921Z,97474.84
2018-01-28T22:08:45.587Z,97467.94
2018-01-28T22:11:14.472Z,97467.18
2018-01-28T22:13:42.493Z,97462.05
2018-01-28T22:16:10.206Z,97455.08
2018-01-28T22:18:37.789Z,97449.59
2018-01-28T22:21:05.960Z,97457.86
2018-01-28T22:23:33.653Z,97452.41
2018-01-28T22:26:01.215Z,97463.95
2018-01-28T22:28:28.784Z,97457.23
2018-01-28T22:30:56.359Z,97461.34
2018-01-28T22:33:23.959Z,97463.48
2018-01-28T22:35:51.586Z,97456.48
2018-01-28T22:38:19.156Z,97454.35
2018-01-28T22:40:46.770Z,97454.14
2018-01-28T22:43:14.940Z,97449.63
2018-01-28T22:45:42.512Z,97454.26
2018-01-28T22:48:10.097Z,97451.42
2018-01-28T22:50:37.752Z,97450.68
2018-01-28T22:53:05.501Z,97441.47
2018-01-28T22:55:33.139Z,97447.05
2018-01-28T22:58:00.690Z,97435.81
2018-01-28T23:00:28.303Z,97440.82
2018-01-28T23:02:58.433Z,97441.16
2018-01-28T23:05:26.040Z,97444.03
2018-01-28T23:07:53.596Z,97435.17
2018-01-28T23:10:23.219Z,97439.88
2018-01-28T23:12:51.763Z,97440.36
2018-01-28T23:15:19.498Z,97439.00
2018-01-28T23:17:47.285Z,97431.02
2018-01-28T23:20:14.911Z,97438.63
2018-01-28T23:22:42.492Z,97438.61
2018-01-28T23:25:10.742Z,97433.20
2018-01-28T23:27:38.311Z,97434.66
2018-01-28T23:30:05.854Z,97442.06
2018-01-28T23:32:34.800Z,97431.87
2018-01-28T23:35:03.527Z,97426.73
2018-01-28T23:37:31.158Z,97427.16
2018-01-28T23:39:58.785Z,97426.64
2018-01-28T23:42:26.317Z,97421.91
2018-01-28T23:44:53.913Z,97422.98
2018-01-28T23:47:21.548Z,97414.48
2018-01-28T23:49:49.114Z,97395.91
2018-01-28T23:52:16.661Z,97422.66
2018-01-28T23:54:44.254Z,97409.63
2018-01-28T23:57:14.187Z,97424.78
2018-01-28T23:59:41.784Z,97406.28
